Date,TemperatureHighF,TemperatureAvgF,TemperatureLowF,DewpointHighF,DewpointAvgF,DewpointLowF,HumidityHigh,HumidityAvg,HumidityLow,PressureMaxIn,PressureMinIn,WindSpeedMaxMPH,WindSpeedAvgMPH,GustSpeedMaxMPH,PrecipitationSumIn
2013-1-1,82.6,71.2,60.3,60.3,57.0,54.9,85,63,40,30.13,29.97,10,2,18,0.00
2013-1-2,86.2,71.7,59.4,66.9,60.2,56.0,92,70,40,30.01,29.91,5,0,9,0.00
2013-1-3,88.7,74.5,64.2,70.6,63.2,58.5,94,71,39,30.05,29.94,6,1,10,0.00
2013-1-4,88.9,73.0,64.6,67.8,64.9,61.9,95,77,43,30.15,30.02,5,1,9,0.00
2013-1-5,78.1,69.9,65.8,67.7,64.8,63.1,93,84,66,30.17,30.07,5,2,12,0.00
2013-1-6,86.4,73.6,64.4,77.3,66.6,62.7,99,81,49,30.11,29.97,8,2,14,0.04
2013-1-7,80.1,72.5,67.1,69.0,66.7,64.1,94,83,61,30.08,29.99,6,2,10,0.00
2013-1-8,86.0,75.0,69.1,73.9,68.9,66.7,96,82,56,30.13,29.99,8,2,14,0.50
2013-1-9,85.3,77.1,71.4,71.0,68.2,65.8,94,75,55,30.20,30.07,9,3,17,0.01
2013-1-10,83.3,75.3,68.9,70.4,63.9,58.2,85,69,48,30.21,30.10,11,2,22,0.00
2013-1-11,82.8,74.6,69.4,70.3,65.9,63.3,87,75,58,30.18,30.07,8,2,15,0.01
2013-1-12,85.5,75.5,68.5,67.0,63.5,60.6,86,67,46,30.10,30.00,8,2,13,0.00
2013-1-13,86.2,75.6,68.5,65.7,62.8,60.3,84,66,44,30.05,29.99,8,2,14,0.00
2013-1-14,84.4,73.5,63.7,66.5,61.6,59.1,91,68,45,30.08,30.03,9,1,15,0.00
2013-1-15,85.5,73.0,64.8,70.1,63.3,60.0,95,74,46,30.05,29.96,7,1,11,0.00
2013-1-16,87.1,73.5,61.0,71.6,63.8,59.0,96,74,47,30.03,29.92,9,1,13,0.00
2013-1-17,87.3,73.1,61.3,69.7,63.0,48.8,92,72,49,30.00,29.88,13,2,22,0.00
2013-1-18,74.8,63.4,51.1,54.3,48.4,41.1,74,59,45,30.16,30.00,8,3,14,0.00
2013-1-19,75.2,67.4,60.4,66.0,61.3,52.0,94,81,69,30.14,30.02,5,1,8,0.06
2013-1-20,86.0,71.8,63.0,70.2,64.1,62.0,99,79,48,30.06,29.92,7,1,14,0.01
2013-1-21,86.7,73.1,64.8,70.6,64.3,60.7,95,76,45,29.99,29.87,6,1,10,0.00
2013-1-22,78.4,67.6,61.3,62.2,55.5,47.7,92,67,46,30.15,29.91,9,3,17,0.00
2013-1-23,79.0,65.9,59.2,56.1,51.3,45.3,73,61,33,30.23,30.12,8,2,14,0.00
2013-1-24,81.5,66.4,57.2,50.9,45.0,29.1,76,51,18,30.22,30.11,8,2,14,0.00
2013-1-25,81.3,66.5,55.2,54.8,49.6,45.5,82,57,33,30.21,30.09,7,1,11,0.00
2013-1-26,86.0,68.5,57.0,55.8,50.7,41.4,89,58,22,30.18,30.07,5,1,8,0.00
2013-1-27,82.2,70.3,59.5,59.0,54.0,47.3,81,59,31,30.21,30.12,8,2,15,0.00
2013-1-28,82.8,74.1,64.6,64.9,60.2,56.4,81,63,43,30.24,30.14,9,2,16,0.00
2013-1-29,82.6,74.0,69.1,70.6,65.1,62.2,92,74,59,30.15,30.03,8,2,17,0.20
2013-1-30,85.1,74.2,65.8,65.8,62.1,59.7,85,67,45,30.03,29.88,12,3,22,0.00
2013-1-31,70.5,64.9,54.3,69.0,54.4,33.1,99,71,39,30.11,29.85,8,2,18,0.00
2013-2-1,84.7,60.9,52.2,70.0,47.4,28.3,99,65,38,30.20,29.86,4,2,9,0.01
2013-2-2,79.9,33.6,0.0,65.3,43.3,29.2,94,36,31,30.19,29.79,6,0,12,0.00
2013-2-3,78.6,63.2,52.5,50.3,39.2,15.2,85,51,10,29.97,29.86,7,2,14,0.00
2013-2-4,79.2,62.9,45.9,50.6,38.9,23.3,78,48,13,29.93,29.82,7,1,12,0.00
2013-2-5,86.7,67.6,51.4,59.1,50.9,37.8,91,61,18,29.88,29.79,7,1,11,0.00
2013-2-6,87.1,70.1,59.0,64.8,58.5,54.6,94,70,37,29.90,29.81,6,1,11,0.00
2013-2-7,87.3,73.4,61.3,65.6,60.3,52.8,94,67,32,29.87,29.72,8,2,14,0.00
2013-2-8,86.4,72.9,64.0,67.6,62.2,51.5,91,72,32,29.82,29.69,7,2,12,0.00
2013-2-9,82.6,71.6,62.8,64.4,60.7,56.2,98,71,43,29.96,29.81,9,3,17,0.01
2013-2-10,77.0,71.3,66.2,62.3,58.2,56.0,82,64,51,30.05,29.93,11,3,18,0.03
2013-2-11,81.7,71.9,62.6,62.8,59.4,56.8,87,66,47,30.01,29.89,9,2,16,0.00
2013-2-12,89.8,74.1,61.2,68.5,62.2,54.6,96,70,32,29.91,29.75,9,2,14,0.00
2013-2-13,90.9,77.1,66.9,72.5,66.4,62.4,99,73,40,29.80,29.66,8,2,14,0.00
2013-2-14,83.7,68.5,61.7,71.3,65.7,60.2,97,91,64,29.81,29.65,10,2,21,1.59
2013-2-15,75.6,66.1,62.2,69.1,63.9,60.3,99,93,64,29.83,29.72,5,1,9,0.10
2013-2-16,73.2,64.5,53.2,62.7,53.6,39.3,99,71,35,29.88,29.67,11,3,23,0.01
2013-2-17,62.2,51.6,42.4,39.8,18.9,-0.5,64,33,10,30.11,29.87,10,4,19,0.00
2013-2-18,71.8,59.0,44.6,51.6,37.5,22.1,61,45,31,30.11,30.00,11,3,18,0.00
2013-2-19,82.2,69.5,54.0,65.5,57.7,50.6,92,68,42,30.00,29.87,9,2,17,0.13
2013-2-20,84.7,72.1,61.5,67.0,61.6,55.7,99,73,38,29.91,29.79,7,2,12,0.01
2013-2-21,86.0,77.8,69.8,65.8,63.7,60.3,83,63,43,29.88,29.80,6,3,11,0.00
2013-2-22,90.7,75.7,64.6,74.7,66.8,62.4,98,76,48,30.30,29.80,9,3,15,0.00
2013-2-23,91.6,77.6,69.6,71.5,67.7,62.2,93,74,39,29.83,29.69,8,2,15,0.28
2013-2-24,92.7,78.4,70.7,74.6,68.4,57.6,99,76,33,29.78,29.67,8,1,11,0.00
2013-2-25,88.2,76.3,67.6,74.1,69.4,64.2,99,81,47,29.84,29.59,9,2,17,0.01
2013-2-26,90.3,79.0,71.8,73.7,69.2,63.1,99,74,43,29.67,29.58,10,3,20,0.00
2013-2-27,77.5,70.0,62.2,73.3,63.3,55.5,96,81,55,29.75,29.65,6,1,11,0.43
2013-2-28,75.9,64.4,58.5,62.8,50.0,32.8,94,63,22,29.80,29.69,8,2,14,0.01
2013-3-1,65.8,61.7,57.6,54.6,45.8,40.2,78,57,41,29.78,29.68,6,2,11,0.00
2013-3-2,67.8,58.1,50.0,45.9,34.4,23.4,66,43,22,29.83,29.74,12,3,21,0.00
2013-3-3,64.4,54.0,47.3,39.0,34.2,28.3,68,49,27,29.94,29.76,11,3,22,0.00
2013-3-4,75.0,54.9,38.8,41.0,25.8,7.5,74,40,10,30.00,29.91,8,2,16,0.00
2013-3-5,82.8,64.4,46.4,54.6,46.4,38.6,91,57,23,29.97,29.86,7,2,13,0.00
2013-3-6,78.3,64.3,52.3,60.4,44.6,11.1,93,57,10,29.89,29.74,12,4,21,0.00
2013-3-7,78.8,60.1,46.2,51.2,37.2,27.5,85,46,17,29.98,29.86,7,2,14,0.00
2013-3-8,83.7,64.6,51.1,50.5,41.3,17.6,86,51,10,30.00,29.88,7,2,11,0.00
2013-3-9,79.0,65.4,52.7,51.5,47.8,43.9,84,56,30,29.99,29.89,11,2,17,0.00
2013-3-10,79.0,68.8,57.9,56.0,51.1,43.8,85,56,34,29.95,29.86,10,3,16,0.00
2013-3-11,81.7,71.7,64.0,59.3,54.9,48.1,74,57,33,29.90,29.74,11,3,17,0.00
2013-3-12,85.5,73.9,64.2,64.5,61.3,57.0,87,66,46,29.79,29.69,8,2,16,0.00
2013-3-13,90.7,68.8,56.5,68.3,44.0,26.7,75,44,16,30.30,29.84,8,3,16,0.00
2013-3-14,74.7,61.6,52.2,48.6,36.9,16.6,80,46,14,30.00,29.88,8,3,17,0.00
2013-3-15,77.2,62.7,49.6,49.2,40.7,22.8,73,49,16,30.05,29.93,8,2,12,0.00
2013-3-16,81.7,65.5,50.5,54.5,47.1,36.6,90,57,22,29.99,29.87,8,2,15,0.00
2013-3-17,80.1,67.9,54.9,57.6,53.6,50.8,89,63,38,29.95,29.82,10,2,17,0.00
2013-3-18,84.0,71.4,64.4,68.8,62.1,56.8,99,74,47,29.87,29.74,11,2,18,1.25
2013-3-19,87.1,73.2,66.0,69.2,65.1,59.6,99,78,41,29.80,29.63,9,1,18,0.00
2013-3-20,87.4,73.4,62.4,71.7,61.6,53.7,99,71,40,29.77,29.59,9,2,16,0.00
2013-3-21,80.1,67.9,55.9,61.3,45.1,14.5,93,53,10,29.74,29.62,8,2,14,0.00
2013-3-22,79.7,67.7,52.5,67.4,55.5,48.3,95,68,40,29.80,29.69,9,2,17,0.00
2013-3-23,94.5,79.9,70.2,76.6,66.6,57.8,99,68,32,29.77,29.57,8,1,15,0.01
2013-3-24,91.9,79.6,71.2,74.4,69.5,62.2,99,74,42,29.68,29.45,15,4,29,0.31
2013-3-25,80.6,73.1,62.6,73.5,53.2,21.8,99,59,15,29.78,29.52,9,3,15,0.01
2013-3-26,69.3,60.6,49.3,38.2,28.0,8.9,55,31,11,30.00,29.77,11,4,21,0.00
2013-3-27,73.9,56.9,45.0,42.0,30.5,13.0,65,41,11,30.05,29.95,7,2,13,0.00
2013-3-28,77.4,61.4,46.9,42.1,35.8,18.2,78,44,13,30.06,29.95,8,2,14,0.00
2013-3-29,78.8,64.8,51.6,47.6,40.7,30.9,72,45,20,30.08,29.99,9,2,14,0.00
2013-3-30,79.3,67.0,53.6,61.3,46.7,34.4,91,54,21,30.05,29.95,10,2,13,0.00
2013-3-31,84.0,70.7,56.1,63.2,56.8,49.5,93,64,39,29.98,29.82,10,3,15,0.00
2013-4-1,90.9,77.5,66.9,71.9,61.2,50.5,92,63,26,29.84,29.71,9,2,17,0.04
2013-4-3,90.7,76.0,74.3,68.3,66.9,66.2,77,74,48,30.30,29.81,4,2,10,0.00
2013-4-4,88.2,75.6,68.7,71.6,67.4,65.2,94,77,49,29.83,29.68,12,3,21,0.24
2013-4-5,72.7,68.9,66.6,69.9,66.0,64.5,99,91,80,29.78,29.60,11,2,17,0.68
2013-4-6,82.2,71.0,66.7,65.3,61.0,52.3,94,74,39,30.02,29.63,9,2,17,0.68
2013-4-7,70.5,69.6,67.8,61.3,59.6,58.4,79,70,68,29.98,29.93,4,2,9,0.00
2013-4-8,90.7,73.5,59.7,68.3,57.6,45.3,94,61,27,30.30,29.94,8,2,14,0.00
2013-4-9,83.7,75.1,66.4,66.9,62.4,58.3,90,66,45,30.05,29.94,9,3,16,0.00
2013-4-10,87.3,78.2,70.2,69.2,66.5,63.2,84,68,48,30.00,29.88,10,3,18,0.00
2013-4-11,86.2,79.2,74.8,70.9,68.1,65.6,81,70,52,29.91,29.79,11,5,20,0.00
2013-4-12,90.7,77.2,73.9,73.0,71.4,66.3,89,82,48,30.30,29.77,6,2,13,0.17
2013-4-13,90.5,77.9,71.8,77.0,70.9,62.5,98,80,54,29.86,29.76,9,1,18,0.40
2013-4-14,89.8,80.2,71.8,77.1,70.8,65.7,99,75,48,29.86,29.78,11,3,17,0.00
2013-4-15,95.4,78.6,69.3,74.4,70.0,64.9,99,78,39,29.94,29.82,12,2,18,1.73
2013-4-16,88.3,78.5,69.6,77.7,71.1,67.2,99,80,57,30.01,29.92,11,3,16,0.01
2013-4-17,86.9,78.2,69.8,69.3,64.0,53.3,92,64,35,30.01,29.91,9,2,14,0.00
2013-4-18,89.2,79.5,70.7,70.3,66.8,62.5,87,67,45,29.96,29.87,9,3,16,0.01
2013-4-19,89.6,81.8,75.4,71.3,68.2,62.3,85,65,43,29.94,29.85,11,4,21,0.01
2013-4-20,95.9,80.1,72.7,73.0,68.4,58.4,85,70,30,29.99,29.86,11,2,17,0.00
2013-4-21,90.0,78.4,71.1,71.3,68.2,64.6,94,72,48,29.99,29.87,8,2,18,0.00
2013-4-22,90.9,76.7,71.1,69.6,66.1,59.6,91,72,37,29.94,29.82,10,2,17,0.00
2013-4-23,85.3,75.8,66.4,66.7,61.4,55.2,96,64,38,29.99,29.85,11,3,21,0.00
2013-4-24,87.4,76.9,63.9,61.5,57.3,53.6,83,53,34,30.03,29.93,8,2,17,0.00
2013-4-25,86.4,76.8,64.9,63.0,56.3,50.1,84,52,30,30.10,29.97,8,2,13,0.00
2013-4-26,86.0,76.2,63.3,61.3,58.2,54.4,85,56,36,30.11,30.01,10,3,17,0.00
2013-4-27,84.6,79.8,74.5,62.1,57.5,50.8,62,47,32,30.06,29.98,8,4,16,0.00
2013-4-28,90.7,77.8,70.7,59.2,56.0,45.9,65,48,26,30.30,29.88,9,4,18,0.00
2013-4-29,88.3,77.5,68.5,67.4,62.6,58.0,81,61,40,29.93,29.82,10,3,17,0.00
2013-4-30,89.2,76.0,69.8,72.5,67.8,64.6,95,77,47,29.89,29.81,11,1,16,0.57
2013-5-1,89.1,75.2,68.9,76.3,68.4,64.5,99,82,45,29.89,29.81,8,2,14,0.40
2013-5-2,79.7,71.7,67.8,75.1,70.1,67.6,99,95,75,29.84,29.67,12,2,23,3.94
2013-5-3,92.5,76.3,67.6,72.7,67.9,59.3,99,79,35,29.72,29.56,8,2,17,0.81
2013-5-4,89.2,76.9,66.7,73.2,66.1,58.4,99,73,37,29.69,29.57,10,3,15,0.00
2013-5-5,83.3,74.3,65.3,68.6,55.7,36.2,98,58,19,29.82,29.64,11,3,17,0.00
2013-5-6,87.6,73.2,57.6,64.4,55.3,46.2,91,56,31,29.91,29.81,8,2,14,0.00
2013-5-7,87.3,73.5,60.8,58.8,52.8,45.1,80,52,24,29.95,29.86,8,3,14,0.00
2013-5-8,90.0,75.6,59.5,61.8,53.6,41.3,91,53,20,30.03,29.93,6,1,11,0.00
2013-5-9,93.9,79.3,65.8,70.2,61.0,51.6,78,57,24,30.03,29.94,8,2,16,0.00
2013-5-10,93.0,81.0,72.9,72.2,68.0,59.6,90,68,35,30.03,29.90,10,2,16,0.07
2013-5-11,93.0,80.8,72.5,80.0,70.5,64.2,99,74,41,29.96,29.85,10,2,18,0.14
2013-5-12,96.8,79.9,71.1,76.9,69.0,56.0,99,74,28,29.95,29.82,8,1,18,0.21
2013-5-13,90.7,78.3,71.8,71.2,65.6,53.6,96,69,31,30.30,29.62,10,2,17,2.68
2013-5-14,83.8,76.3,67.8,63.1,53.8,42.8,75,48,27,30.04,29.92,10,3,17,0.00
2013-5-15,84.2,75.3,64.2,61.6,55.4,47.9,75,52,31,30.05,29.94,11,3,16,0.00
2013-5-16,87.3,76.9,64.0,61.9,56.3,51.3,82,51,32,29.97,29.89,9,2,14,0.00
2013-5-17,87.3,77.7,67.6,68.9,65.0,59.4,85,66,46,29.95,29.86,9,3,17,0.00
2013-5-18,91.6,80.3,71.4,72.0,67.2,61.9,91,66,39,29.95,29.88,10,2,16,0.00
2013-5-19,91.0,80.7,71.1,70.0,64.9,57.9,91,61,35,29.95,29.85,8,2,14,0.00
2013-5-20,83.1,76.8,66.0,72.5,68.6,64.4,98,76,58,29.93,29.83,12,2,21,1.49
2013-5-21,86.9,76.7,67.8,78.2,68.9,63.3,99,79,52,29.92,29.78,11,3,17,0.04
2013-5-22,91.6,78.9,72.0,73.1,68.5,62.5,93,72,42,29.82,29.75,11,2,17,0.06
2013-5-23,95.4,82.0,72.3,77.1,68.7,51.3,99,69,26,29.86,29.75,8,2,12,0.00
2013-5-24,94.8,84.1,73.8,74.7,66.4,49.0,96,61,24,29.92,29.80,8,2,16,0.00
2013-5-25,88.0,81.0,75.7,71.5,63.0,56.5,84,56,36,30.02,29.89,11,4,19,0.00
2013-5-26,87.3,78.9,68.0,63.3,58.5,54.6,73,51,36,30.03,29.96,11,3,18,0.00
2013-5-27,88.0,79.5,70.9,70.8,63.5,56.0,83,59,47,30.02,29.92,11,4,20,0.06
2013-5-28,86.0,79.1,75.0,72.0,68.8,65.8,86,71,53,29.97,29.90,13,5,24,0.07
2013-5-29,81.9,75.4,70.2,77.4,71.1,67.3,99,87,65,29.95,29.88,11,3,21,2.85
2013-5-30,82.6,77.4,72.5,75.0,69.7,65.2,93,77,63,29.93,29.85,16,6,28,0.92
2013-5-31,86.4,78.6,75.0,74.7,71.1,68.6,92,78,57,29.92,29.85,12,4,19,0.16
2013-6-1,89.1,77.7,73.9,78.5,74.3,71.7,99,90,59,29.89,29.81,8,2,13,0.81
2013-6-2,98.1,80.5,71.8,83.3,72.9,64.3,99,81,34,29.86,29.77,8,1,11,0.27
2013-6-3,91.4,79.5,72.5,80.5,73.4,68.6,99,83,52,29.89,29.76,11,1,18,0.88
2013-6-4,89.6,79.9,74.1,79.5,74.1,69.5,99,84,54,29.91,29.80,8,1,14,0.01
2013-6-5,84.9,81.0,77.9,77.7,74.9,73.2,89,82,69,29.87,29.74,7,2,11,0.06
2013-6-6,90.7,80.5,73.2,82.5,74.2,68.3,99,82,48,30.30,29.60,16,3,28,2.42
2013-6-7,92.8,78.3,73.4,77.6,73.8,71.0,99,88,51,29.84,29.69,9,2,15,1.40
2013-6-8,85.5,77.7,73.2,82.5,76.2,73.0,99,95,77,29.97,29.81,10,1,18,3.97
2013-6-9,90.3,81.7,72.5,80.1,73.6,67.2,99,78,49,29.98,29.88,14,3,22,0.51
2013-6-10,91.6,84.0,78.4,75.7,73.2,68.9,88,71,51,29.95,29.86,10,3,16,0.00
2013-6-11,94.1,83.0,74.3,79.6,74.8,68.1,93,77,48,29.95,29.85,12,2,17,0.40
2013-6-12,95.4,80.7,75.9,82.1,74.5,68.0,99,83,45,29.93,29.87,8,1,14,0.06
2013-6-13,95.4,81.7,74.1,82.9,72.9,67.2,99,77,41,29.90,29.79,7,1,11,0.01
2013-6-14,96.8,82.6,73.4,79.6,70.8,63.6,99,71,35,29.83,29.73,11,2,21,0.01
2013-6-15,100.6,84.6,73.8,80.1,70.6,60.8,99,67,29,29.91,29.77,8,2,12,0.00
2013-6-16,94.8,85.1,75.7,79.3,71.8,62.7,99,68,36,29.95,29.87,9,2,15,0.00
2013-6-17,95.2,86.0,77.2,78.1,71.3,64.0,93,64,38,29.93,29.85,10,3,16,0.00
2013-6-18,96.6,86.3,76.6,78.4,71.2,63.9,95,64,37,29.92,29.83,10,2,14,0.00
2013-6-19,95.4,84.2,77.9,76.6,71.6,65.7,89,68,41,29.91,29.83,8,2,13,0.00
2013-6-20,98.6,83.7,75.4,73.4,68.4,60.3,86,63,30,29.94,29.87,14,2,28,0.00
2013-6-21,94.3,84.9,74.7,76.5,68.3,58.2,93,61,30,29.96,29.88,9,2,14,0.00
2013-6-22,93.2,84.7,75.7,74.8,68.6,62.0,88,61,38,29.95,29.89,9,2,14,0.01
2013-6-23,91.8,83.3,75.9,77.1,70.3,65.3,96,66,44,29.98,29.90,11,3,17,0.21
2013-6-24,91.6,85.0,78.3,71.5,68.1,63.2,76,58,40,30.02,29.93,13,4,20,0.00
2013-6-25,93.0,84.6,77.5,72.1,69.5,66.3,81,62,45,29.99,29.89,11,3,16,0.00
2013-6-26,93.0,85.7,81.1,71.2,68.3,61.5,71,57,36,30.30,29.87,8,3,14,0.03
2013-6-27,95.0,82.2,75.0,78.2,72.0,66.3,93,73,41,29.92,29.81,8,1,12,0.20
2013-6-28,98.1,84.1,73.8,82.7,71.0,62.8,99,70,33,29.85,29.70,8,1,17,0.55
2013-6-29,99.7,82.2,74.7,79.4,73.2,61.7,99,78,30,29.77,29.67,11,1,17,0.13
2013-6-30,93.6,79.1,72.5,78.4,74.3,66.8,99,87,45,29.80,29.69,9,1,21,1.70
2013-7-1,92.7,81.4,75.2,80.1,74.1,68.2,99,81,46,29.89,29.76,12,3,20,0.03
2013-7-2,90.7,82.1,75.6,77.7,73.9,67.0,92,77,55,29.96,29.83,11,2,21,0.10
2013-7-3,90.1,81.3,75.2,77.0,73.4,68.9,94,78,52,29.99,29.90,14,3,24,0.37
2013-7-4,91.8,83.4,75.7,76.2,72.2,65.7,96,70,45,30.00,29.92,13,4,20,0.07
2013-7-5,87.8,79.9,72.5,80.3,73.9,68.3,99,83,63,30.00,29.90,12,3,23,1.02
2013-7-6,91.4,83.6,78.1,75.3,70.3,64.7,80,65,43,29.97,29.88,11,4,18,0.04
2013-7-7,90.7,84.2,76.3,74.3,69.7,65.0,87,63,45,29.96,29.87,12,4,18,0.00
2013-7-8,91.8,84.2,76.8,72.9,67.8,58.8,85,60,34,29.99,29.92,10,3,17,0.00
2013-7-9,90.0,81.7,72.0,74.7,69.3,61.3,90,67,44,30.01,29.90,10,2,17,0.24
2013-7-10,90.9,80.1,72.0,73.2,70.0,64.2,90,73,43,29.94,29.85,8,1,12,0.10
2013-7-11,95.0,82.5,75.9,71.6,68.9,62.4,86,65,36,30.30,29.86,8,1,21,0.44
2013-7-12,95.9,81.7,75.0,80.7,71.2,62.1,99,74,33,29.88,29.81,9,1,16,0.01
2013-7-13,93.6,77.1,73.2,74.7,72.5,66.1,99,87,42,29.94,29.83,12,1,21,1.02
2013-7-14,92.8,78.2,72.5,78.1,72.3,62.8,99,85,38,30.01,29.90,11,2,19,0.23
2013-7-15,91.9,81.1,73.4,76.8,71.7,64.7,99,76,46,30.01,29.93,10,2,15,0.01
2013-7-16,85.8,77.6,72.3,77.7,71.1,65.2,99,82,52,30.08,29.97,15,3,23,1.32
2013-7-17,84.2,78.0,74.1,77.3,73.4,69.4,99,86,67,30.06,29.96,11,2,17,0.41
2013-7-18,90.1,78.5,72.1,77.8,72.5,67.7,99,84,48,30.04,29.97,8,2,15,0.99
2013-7-19,91.4,81.3,72.7,80.0,74.1,67.3,99,81,48,30.05,29.95,10,2,16,0.01
2013-7-20,89.1,81.3,75.7,79.8,76.5,72.5,96,85,67,30.04,29.95,7,1,11,0.31
2013-7-21,96.3,81.8,75.6,80.4,74.4,68.3,99,80,41,30.07,29.95,10,1,16,0.10
2013-7-22,96.8,84.5,75.2,80.2,72.0,60.6,99,71,32,30.06,29.97,7,2,13,0.00
2013-7-23,98.4,87.1,77.0,78.9,70.2,58.8,95,62,29,30.02,29.88,7,2,11,0.00
2013-7-24,96.4,85.8,76.6,76.4,68.2,48.6,93,60,21,29.94,29.83,9,2,15,0.00
2013-7-25,96.1,85.3,75.6,74.8,70.7,66.6,91,64,39,29.93,29.83,9,2,16,0.00
2013-7-26,95.2,83.9,78.4,76.2,72.0,65.1,86,69,41,29.93,29.84,12,2,20,0.07
2013-7-27,97.0,81.1,76.5,78.0,73.5,66.2,94,80,38,29.93,29.84,10,1,15,0.14
2013-7-28,92.1,80.6,75.2,81.7,74.6,70.4,99,83,51,29.99,29.86,8,1,16,0.06
2013-7-29,95.4,82.6,74.3,78.2,72.2,67.2,99,73,43,30.06,29.93,8,2,16,0.01
2013-7-30,93.6,84.1,75.4,80.7,74.1,66.4,99,75,43,30.09,30.00,11,2,17,0.38
2013-7-31,93.6,88.1,81.7,73.1,68.4,61.4,66,53,36,30.30,29.92,11,4,17,0.00
2013-8-1,93.0,84.5,76.3,74.9,68.9,62.0,90,62,36,29.97,29.85,9,3,19,0.00
2013-8-2,92.8,82.2,75.6,75.5,69.7,61.2,90,68,38,29.96,29.83,10,2,14,0.00
2013-8-3,88.3,78.9,75.2,75.7,72.9,69.9,95,82,63,30.03,29.93,7,1,15,0.04
2013-8-4,100.9,82.3,73.9,80.1,73.2,62.5,99,79,29,30.02,29.89,13,1,21,0.61
2013-8-5,93.2,82.0,76.1,82.9,75.0,68.3,99,81,48,30.30,29.87,7,1,11,0.09
2013-8-6,102.2,84.4,75.6,79.3,72.4,57.7,99,72,26,29.90,29.80,7,1,11,0.00
2013-8-7,93.2,84.1,77.2,78.9,72.6,64.7,97,70,41,29.90,29.81,8,2,14,0.01
2013-8-8,93.9,85.9,79.5,74.1,69.8,63.6,83,60,38,29.94,29.84,10,4,18,0.00
2013-8-9,92.7,84.2,79.3,74.0,68.1,60.5,76,59,41,29.99,29.87,10,3,18,0.03
2013-8-10,94.3,85.5,77.0,74.8,69.7,62.0,89,62,35,30.03,29.95,10,3,17,0.00
2013-8-11,94.8,85.8,77.7,74.0,69.9,63.8,87,61,37,30.05,29.98,9,3,14,0.00
2013-8-12,93.4,85.0,75.7,76.2,69.0,60.1,93,61,35,30.03,29.93,11,2,17,0.00
2013-8-13,96.4,86.4,77.2,79.4,68.6,60.1,94,59,32,29.96,29.86,7,2,14,0.00
2013-8-14,96.8,85.9,75.6,76.8,68.6,57.9,94,60,28,29.95,29.84,8,2,14,0.00
2013-8-15,93.2,83.8,74.8,75.0,71.2,66.2,94,68,42,29.98,29.87,9,2,17,0.07
2013-8-16,95.9,85.8,77.9,76.1,71.1,65.0,86,63,39,29.97,29.88,9,2,14,0.00
2013-8-17,94.8,86.8,80.8,76.3,71.8,64.5,84,63,39,30.00,29.91,9,3,16,0.00
2013-8-18,92.3,85.6,79.9,75.6,71.0,65.6,81,63,42,30.00,29.91,11,4,20,0.03
2013-8-19,94.3,86.0,79.5,75.0,70.4,63.0,85,62,37,29.99,29.88,11,3,17,0.00
2013-8-20,93.7,85.3,79.0,73.3,69.0,58.2,80,60,33,29.98,29.89,11,3,18,0.01
2013-8-21,91.4,83.4,77.4,79.7,74.6,70.8,98,76,53,30.00,29.91,11,3,17,0.28
2013-8-22,93.4,85.1,77.5,78.7,71.4,66.0,93,65,42,29.98,29.88,11,3,16,0.17
2013-8-23,94.8,84.8,77.4,76.4,70.6,63.6,90,64,39,29.93,29.85,10,2,17,0.00
2013-8-24,96.3,84.7,76.6,77.6,70.1,62.6,93,65,35,30.01,29.89,13,2,24,0.01
2013-8-25,91.2,81.8,76.1,77.1,70.7,64.5,90,70,43,30.06,29.95,8,2,12,0.34
2013-8-26,94.5,80.4,71.8,76.9,71.4,62.5,99,78,36,30.03,29.92,11,2,18,1.54
2013-8-27,92.5,79.4,72.5,78.2,71.6,62.6,99,80,41,29.96,29.88,7,1,11,0.09
2013-8-28,91.0,82.7,76.3,73.7,69.7,64.5,91,67,43,29.95,29.86,6,2,10,0.60
2013-8-29,96.1,83.8,74.1,76.2,70.6,61.5,98,68,34,30.30,29.83,8,2,14,0.01
2013-8-30,98.8,86.0,76.1,79.3,69.6,55.2,99,63,24,29.92,29.81,8,2,14,0.00
2013-8-31,98.8,83.8,75.6,75.7,68.5,54.0,92,64,25,29.90,29.82,9,2,17,0.00
2013-9-1,97.0,82.4,74.1,78.6,70.1,57.1,98,70,28,29.92,29.84,8,1,13,0.00
2013-9-2,98.1,81.0,74.5,82.9,72.3,60.2,99,80,31,29.95,29.85,12,1,25,0.18
2013-9-3,98.1,83.0,72.9,78.9,69.6,57.8,99,69,28,29.94,29.85,8,1,14,0.01
2013-9-4,94.3,84.3,78.1,78.4,73.4,67.1,95,72,45,29.99,29.86,9,2,13,0.00
2013-9-5,95.4,85.6,79.2,77.5,72.0,62.3,90,66,36,29.99,29.91,10,2,16,0.00
2013-9-6,97.0,86.4,78.1,79.1,71.2,61.2,95,64,34,29.95,29.83,8,2,13,0.00
2013-9-7,91.6,79.8,73.6,75.7,71.4,66.9,94,77,48,29.90,29.81,11,2,17,0.23
2013-9-8,95.9,80.2,73.4,76.0,71.3,61.2,97,77,32,29.87,29.77,8,1,11,0.18
2013-9-9,92.5,81.9,73.0,77.1,70.0,61.8,96,71,40,29.92,29.81,14,2,21,0.26
2013-9-10,90.7,80.9,73.9,78.2,71.9,65.2,99,76,46,29.96,29.87,11,2,18,0.03
2013-9-11,86.7,79.4,73.6,75.3,72.7,66.2,99,81,52,29.98,29.88,9,2,14,0.57
2013-9-12,90.0,80.3,75.9,77.3,73.2,66.0,97,80,51,29.92,29.81,7,1,11,0.00
2013-9-13,97.9,83.5,73.8,80.9,71.4,56.0,99,72,25,29.82,29.71,7,1,12,0.34
2013-9-14,98.1,85.1,75.2,82.2,69.8,59.3,99,65,31,29.89,29.73,8,2,14,0.00
2013-9-15,89.4,81.5,76.1,77.5,73.1,64.1,99,76,53,29.98,29.83,11,2,18,0.09
2013-9-16,89.6,79.0,75.2,80.1,76.5,67.5,99,93,56,29.99,29.87,14,2,24,1.18
2013-9-17,81.0,76.7,71.6,79.8,75.3,71.3,99,96,87,29.96,29.83,11,1,17,0.89
2013-9-18,90.7,80.1,74.7,76.6,73.3,68.3,98,80,48,30.30,29.85,5,1,10,0.16
2013-9-19,91.0,80.1,73.2,80.8,73.1,67.9,99,81,49,29.92,29.83,10,2,17,0.11
2013-9-20,90.9,80.7,71.2,73.0,65.5,54.5,96,64,32,29.91,29.81,10,2,15,0.01
2013-9-21,95.9,81.9,71.6,74.4,66.3,52.8,95,63,26,29.84,29.68,8,1,13,0.00
2013-9-22,98.1,84.5,73.9,80.0,68.2,56.8,99,63,27,29.78,29.66,7,1,12,0.00
2013-9-23,93.4,82.5,77.0,79.5,73.4,64.3,98,76,40,29.89,29.76,5,1,11,0.14
2013-9-24,92.7,78.4,73.8,81.2,75.9,69.5,99,93,56,29.88,29.78,11,1,17,1.19
2013-9-25,92.1,80.6,73.0,78.5,71.2,61.1,99,76,38,29.82,29.69,11,2,17,0.00
2013-9-26,93.4,80.9,74.3,80.3,75.8,66.8,99,86,50,29.77,29.69,12,2,21,0.37
2013-9-27,93.9,81.4,72.7,76.6,68.6,51.0,99,70,27,29.83,29.73,8,2,13,0.04
2013-9-28,91.6,81.1,74.1,74.3,68.8,60.8,96,70,37,29.87,29.79,10,2,16,0.07
2013-9-29,93.0,80.2,69.4,74.0,65.8,56.4,99,66,31,29.88,29.79,8,1,13,0.00
2013-9-30,93.2,81.7,70.7,74.3,65.0,54.1,99,62,30,29.92,29.82,9,2,14,0.00
2013-10-1,91.4,82.6,73.6,74.0,65.8,58.4,94,59,36,29.95,29.87,9,3,16,0.00
2013-10-2,90.0,82.7,77.0,69.8,64.7,60.2,77,56,38,29.97,29.88,10,3,17,0.00
2013-10-3,91.9,83.1,77.0,69.7,64.5,57.3,76,55,33,29.97,29.86,8,2,14,0.00
2013-10-4,93.4,81.5,73.4,74.4,64.4,50.5,93,60,27,29.97,29.89,8,2,13,0.00
2013-10-5,93.6,81.1,71.1,73.1,65.2,57.2,96,62,31,29.95,29.85,8,2,14,0.00
2013-10-6,94.6,81.9,72.3,74.6,67.4,57.5,97,65,31,29.88,29.77,7,1,11,0.00
2013-10-7,93.6,79.3,72.5,77.6,69.7,59.4,99,77,34,29.81,29.72,11,1,18,1.28
2013-10-8,75.6,74.9,74.1,75.3,74.7,73.9,99,99,99,29.77,29.75,2,0,4,0.01
2013-10-9,90.7,77.4,70.9,75.7,71.0,67.4,99,82,48,30.30,29.81,5,2,11,0.01
2013-10-10,90.7,79.4,70.0,72.4,66.1,56.2,99,68,32,29.93,29.85,9,2,16,0.00
2013-10-11,92.1,78.8,68.5,69.0,60.7,49.8,94,59,25,29.93,29.85,8,2,13,0.00
2013-10-12,92.8,78.4,66.9,69.0,59.9,47.4,94,59,22,29.95,29.86,8,1,11,0.00
2013-10-13,91.8,78.4,70.7,68.5,57.8,40.5,87,55,17,29.97,29.88,8,2,15,0.00
2013-10-14,91.2,79.0,69.4,66.3,59.8,47.6,88,56,24,29.93,29.81,8,2,14,0.00
2013-10-15,91.4,79.0,70.3,70.0,63.8,53.3,94,63,30,29.87,29.77,8,2,11,0.00
2013-10-16,91.4,79.0,69.4,71.5,63.9,54.2,97,64,31,29.86,29.79,7,1,10,0.00
2013-10-17,93.6,81.2,70.3,72.8,63.5,52.7,96,61,26,29.88,29.80,8,1,11,0.00
2013-10-18,94.3,81.2,70.3,72.9,65.4,58.9,95,63,33,30.30,29.81,8,1,13,0.00
2013-10-19,77.7,75.4,72.5,69.2,68.1,67.2,87,78,74,29.88,29.82,2,0,4,0.00
2013-10-20,98.6,83.6,75.2,79.5,69.1,53.1,94,66,22,30.30,29.78,7,1,11,0.00
2013-10-21,97.2,83.8,74.3,77.6,68.8,58.4,94,64,29,29.91,29.81,6,2,14,0.00
2013-10-22,97.0,84.5,75.4,77.1,68.9,56.0,93,65,27,29.88,29.73,6,1,13,0.01
2013-10-23,90.9,80.5,74.7,74.3,66.9,58.4,90,66,35,29.87,29.72,7,2,15,0.00
2013-10-24,82.6,75.2,69.6,63.6,54.8,49.5,72,50,32,30.01,29.85,9,2,14,0.00
2013-10-25,85.5,74.4,66.0,58.5,54.5,45.3,72,53,27,30.07,29.98,11,3,17,0.00
2013-10-26,88.5,74.8,63.9,58.4,52.2,39.7,78,49,19,30.06,29.97,8,2,11,0.00
2013-10-27,88.2,74.2,64.2,59.0,52.7,43.1,73,49,22,30.01,29.93,7,2,11,0.00
2013-10-28,88.5,75.5,64.8,64.0,55.2,39.2,91,56,19,30.06,29.96,8,2,14,0.00
2013-10-29,88.5,77.1,66.2,64.2,57.4,48.5,88,55,29,30.09,30.00,10,2,17,0.00
2013-10-30,87.3,79.0,68.4,64.2,55.8,45.8,81,47,24,30.10,30.00,11,3,20,0.00
2013-10-31,88.5,79.7,72.3,66.6,59.3,51.3,71,51,29,30.03,29.92,9,3,15,0.01
2013-11-1,90.5,80.2,70.3,75.5,66.1,58.0,99,66,34,29.93,29.79,7,2,15,0.01
2013-11-2,95.5,79.7,70.3,72.1,62.2,39.7,97,61,15,29.85,29.71,8,2,14,0.00
2013-11-3,84.0,73.8,67.6,57.9,49.3,38.4,68,44,23,29.95,29.81,11,4,21,0.00
2013-11-4,82.0,75.7,67.5,59.5,50.1,42.5,57,41,30,29.99,29.93,17,5,25,0.01
2013-11-5,84.6,79.2,76.1,60.8,56.5,49.7,54,46,36,30.00,29.93,13,6,26,0.00
2013-11-6,87.3,79.1,69.8,62.3,55.7,47.0,76,46,26,29.98,29.91,11,4,18,0.00
2013-11-7,90.0,77.6,69.6,70.8,63.4,52.3,97,65,31,29.93,29.83,7,2,11,0.00
2013-11-9,90.7,77.0,73.9,68.3,64.6,61.8,82,66,48,30.30,29.93,12,5,26,0.06
2013-11-10,87.8,79.1,72.1,64.9,60.9,53.3,71,55,34,30.04,29.95,8,3,15,0.00
2013-11-11,87.1,76.5,68.7,65.5,59.7,54.9,84,58,35,30.03,29.96,9,2,16,0.00
2013-11-12,88.9,76.6,68.0,64.6,57.9,44.7,85,56,23,30.00,29.87,6,2,11,0.00
2013-11-13,75.9,71.7,68.2,60.7,51.7,35.9,69,51,30,30.14,29.91,14,5,24,0.00
2013-11-14,78.3,72.5,67.8,47.2,41.8,37.6,42,33,25,30.16,30.06,12,5,21,0.03
2013-11-15,81.7,76.2,71.6,57.4,53.2,46.8,51,45,36,30.07,29.95,11,4,20,0.00
2013-11-16,82.0,75.8,70.9,66.9,61.4,54.2,81,62,43,30.01,29.93,8,2,14,0.17
2013-11-17,88.0,78.4,71.1,67.6,62.4,56.0,78,60,37,29.99,29.91,9,2,15,0.01
2013-11-18,91.0,78.0,69.8,72.2,63.9,57.6,93,65,34,29.94,29.83,5,1,8,0.00
2013-11-19,89.8,76.5,71.2,69.7,66.0,56.9,86,72,35,29.85,29.76,5,1,11,0.13
2013-11-20,90.9,76.8,67.5,69.2,65.1,54.3,96,70,29,29.98,29.83,7,1,12,0.01
2013-11-21,84.4,75.8,71.8,74.1,68.3,64.0,93,78,53,30.06,29.96,10,2,16,1.02
2013-11-22,84.6,77.8,73.9,67.0,61.4,55.0,72,58,37,30.07,29.99,10,4,17,0.00
2013-11-23,86.4,76.1,69.6,68.6,61.4,55.5,83,62,35,30.00,29.88,8,1,13,0.00
2013-11-24,83.7,73.3,66.4,68.2,60.6,51.7,95,67,36,30.07,29.90,12,3,19,0.09
2013-11-25,77.2,72.7,70.9,59.8,53.4,45.0,63,51,39,30.12,29.97,14,6,23,0.00
2013-11-26,86.7,77.9,72.3,69.9,65.2,59.8,83,66,45,29.97,29.73,11,4,22,0.07
2013-11-27,78.6,70.9,55.6,71.6,57.5,41.6,98,65,34,30.04,29.69,13,4,22,0.55
2013-11-28,75.2,61.2,45.3,46.0,39.2,24.4,71,48,16,30.17,30.03,8,3,14,0.00
2013-11-30,70.5,65.7,63.5,54.2,52.8,50.1,71,63,49,30.06,30.02,1,0,8,0.06
2013-12-1,80.1,68.7,60.4,68.8,61.9,53.9,96,80,56,30.03,29.86,5,1,11,0.11
2013-12-2,73.0,66.9,59.7,67.3,60.6,55.1,95,81,55,29.86,29.74,6,2,13,0.03
2013-12-3,84.9,70.9,59.0,66.6,54.8,39.9,97,64,22,29.91,29.81,5,1,8,0.00
2013-12-4,87.8,73.2,63.1,66.9,56.9,47.0,93,61,25,30.00,29.90,5,1,10,0.00
2013-12-5,88.3,75.5,63.5,67.7,59.3,51.3,95,61,30,30.16,29.99,9,2,14,0.00
2013-12-6,87.8,74.7,66.7,70.2,60.0,49.2,88,64,28,30.11,30.00,10,2,15,0.00
2013-12-7,85.5,71.7,64.4,69.9,63.3,55.0,90,76,39,30.14,30.05,4,1,9,0.10
2013-12-8,87.4,76.8,69.8,70.3,60.2,48.1,86,59,26,30.12,30.03,11,2,17,0.00
2013-12-9,87.6,77.4,68.2,66.4,56.0,30.1,77,52,13,30.11,30.01,9,3,17,0.01
2013-12-10,92.1,76.3,66.0,69.4,60.5,46.2,92,63,23,30.08,29.99,6,1,10,0.00
2013-12-11,87.3,75.6,67.5,71.6,61.3,43.2,99,66,24,30.12,30.03,7,1,11,0.00
2013-12-12,80.1,70.1,62.8,70.6,59.1,46.2,99,70,42,30.15,30.05,9,2,16,0.00
2013-12-13,80.6,72.9,64.2,55.4,47.2,41.1,56,41,27,30.12,30.02,10,4,18,0.00
2013-12-14,86.2,77.3,73.0,65.4,59.2,52.0,77,55,34,30.03,29.90,11,4,17,0.00
2013-12-15,82.8,74.8,70.5,72.7,66.0,58.3,95,75,56,29.99,29.85,11,2,17,0.00
2013-12-16,77.4,67.4,59.2,59.1,49.9,41.7,73,55,31,30.09,29.96,7,3,12,0.00
2013-12-17,80.6,66.5,56.8,55.0,45.9,34.1,81,53,19,30.11,30.02,7,2,13,0.00
2013-12-18,78.1,65.5,57.2,55.5,43.0,23.1,82,50,14,30.17,30.07,8,2,14,0.00
2013-12-19,79.9,67.1,55.9,53.9,43.4,30.5,70,47,17,30.17,30.08,9,2,15,0.00
2013-12-20,83.3,72.6,61.7,61.6,54.1,49.5,81,55,32,30.11,30.02,10,2,16,0.00
2013-12-21,86.2,77.1,67.6,67.4,59.0,50.3,82,55,31,30.07,29.98,11,3,20,0.00
2013-12-22,87.4,79.3,75.9,64.4,59.3,48.2,66,52,27,30.08,29.99,11,4,19,0.00
2013-12-23,87.8,78.4,71.2,65.8,60.6,52.4,73,56,30,30.10,30.02,12,3,19,0.00
2013-12-24,86.2,71.4,66.9,70.1,58.2,45.8,96,65,41,30.09,30.02,10,2,19,0.00
2013-12-25,77.9,72.2,70.3,57.4,51.8,46.4,62,49,33,30.10,30.02,10,4,17,0.01
2013-12-26,90.7,72.9,70.7,61.6,58.2,54.4,71,60,53,30.30,30.01,4,1,7,0.01
2013-12-27,84.9,75.3,67.8,67.6,57.8,49.6,86,57,31,30.11,30.00,10,3,17,0.00
2013-12-28,81.0,76.4,72.9,65.7,57.6,53.6,74,53,41,30.10,29.94,12,4,20,0.03
2013-12-29,84.9,77.0,72.0,67.1,64.3,23.1,83,66,43,29.95,29.83,10,2,22,0.00
2013-12-30,82.4,72.1,66.9,68.4,61.9,54.0,90,72,39,30.07,29.88,6,2,11,0.00
2013-12-31,81.5,72.2,66.0,55.2,48.8,13.4,65,45,24,30.14,30.02,10,3,56,0.00
2014-1-1,84.9,75.8,71.8,67.8,57.1,47.0,86,54,33,30.11,29.95,10,4,18,0.04
2014-1-2,88.5,76.5,67.6,70.8,57.1,38.5,99,58,19,29.95,29.77,11,2,17,0.01